Olavarria, Argentina
Current Conditions -  °F | °C
As of 8:00 AM on Saturday 25 Oct 2014 (Local Time) from SAZM Reporting Station
Haze Haze  
Wind Chill: 61°   Ceiling: 1500
Heat Index: 61°   Visibility: 3mi
Dew Point: 55°   Wind: 5mph
Humidity: 82%   Direction: 320°NW
Pressure: 30"   Gusts: NA
Location:  36.9°S, 60.33°W
Report Text: SAZM 251100Z 32004KT 5000 BR SCT008 OVC01516/13 Q1016
Loading
Personal Weather Stations






























Interactive Weather Map
Tropical Storm Tracking
New forecast layout! Learn more

10-Day Weather Forecast

Advertisements
Track Severe Weather on mobile